Time;durP1;ratioP1;P1;durP2;ratioP2;P2;SDS_P1;SDS_P2;PMS_P1;PMS_P2;Temp;Humidity;BMP_temperature;BMP_pressure;BME280_temperature;BME280_humidity;BME280_pressure;Samples;Min_cycle;Max_cycle;Signal;HPM_P1;HPM_P2
2023/08/15 00:00:26;;;;;;;9.32;2.92;;;23.00;99.90;;;;;;5048233;28;20246;-24
2023/08/15 00:02:53;;;;;;;8.60;2.47;;;23.00;99.90;;;;;;5023211;28;20229;-24
2023/08/15 00:05:25;;;;;;;8.35;2.85;;;23.00;99.90;;;;;;5008231;28;20612;-23
2023/08/15 00:07:52;;;;;;;7.32;2.42;;;23.00;99.90;;;;;;5006488;28;20217;-23
2023/08/15 00:10:19;;;;;;;7.35;2.47;;;23.00;99.90;;;;;;5008022;28;20206;-23
2023/08/15 00:12:49;;;;;;;8.98;2.30;;;22.90;99.90;;;;;;5006351;28;20260;-23
2023/08/15 00:15:20;;;;;;;10.05;2.45;;;22.90;99.90;;;;;;5008139;28;20208;-23
2023/08/15 00:17:52;;;;;;;7.07;2.55;;;22.80;99.90;;;;;;5006727;28;20292;-23
2023/08/15 00:20:22;;;;;;;6.90;2.60;;;22.80;99.90;;;;;;5006475;28;20198;-23
2023/08/15 00:22:52;;;;;;;5.20;2.20;;;22.70;99.90;;;;;;5007752;28;20305;-23
2023/08/15 00:25:19;;;;;;;8.88;3.22;;;22.70;99.90;;;;;;5007792;28;20201;-24
2023/08/15 00:27:48;;;;;;;8.73;2.47;;;22.70;99.90;;;;;;5006349;28;20287;-24
2023/08/15 00:30:16;;;;;;;6.97;2.63;;;22.70;99.90;;;;;;5006308;28;20640;-23
2023/08/15 00:32:48;;;;;;;8.20;2.42;;;22.60;99.90;;;;;;5006547;28;20619;-23
2023/08/15 00:35:15;;;;;;;7.32;2.55;;;22.60;99.90;;;;;;5006267;28;20294;-23
2023/08/15 00:37:45;;;;;;;7.82;2.90;;;22.60;99.90;;;;;;5005856;28;20205;-24
2023/08/15 00:40:14;;;;;;;8.35;2.60;;;22.60;99.90;;;;;;5007832;28;20566;-23
2023/08/15 00:42:42;;;;;;;6.97;2.67;;;22.60;99.90;;;;;;5007452;28;20660;-23
2023/08/15 00:45:17;;;;;;;9.10;2.80;;;22.60;99.90;;;;;;5005764;28;20213;-23
2023/08/15 00:47:54;;;;;;;6.40;2.50;;;22.60;99.90;;;;;;5005386;28;20768;-23
2023/08/15 00:50:25;;;;;;;8.48;3.00;;;22.60;99.90;;;;;;5007493;28;20212;-23
2023/08/15 00:52:56;;;;;;;6.85;2.90;;;22.50;99.90;;;;;;5005745;28;20232;-24
2023/08/15 00:55:25;;;;;;;10.77;3.08;;;22.60;99.90;;;;;;5006160;28;20664;-23
2023/08/15 00:57:55;;;;;;;7.03;2.83;;;22.50;99.90;;;;;;4989446;28;20281;-23
2023/08/15 01:00:25;;;;;;;7.60;2.38;;;22.50;99.90;;;;;;5005600;28;20190;-23
2023/08/15 01:02:53;;;;;;;7.40;3.00;;;22.50;99.90;;;;;;4998117;28;20209;-24
2023/08/15 01:05:23;;;;;;;9.20;3.17;;;22.50;99.90;;;;;;5020386;28;20204;-23
2023/08/15 01:07:50;;;;;;;6.45;2.63;;;22.50;99.90;;;;;;5012794;28;20256;-23
2023/08/15 01:10:20;;;;;;;7.43;3.17;;;22.50;99.90;;;;;;5027428;28;20252;-23
2023/08/15 01:13:01;;;;;;;6.70;2.70;;;22.50;99.90;;;;;;5025214;28;20701;-23
2023/08/15 01:15:38;;;;;;;7.20;2.60;;;22.50;99.90;;;;;;5019158;28;20679;-23
2023/08/15 01:18:38;;;;;;;7.13;2.80;;;22.50;99.90;;;;;;5021196;28;20302;-23
2023/08/15 01:21:06;;;;;;;7.07;2.80;;;22.50;99.90;;;;;;5026317;28;20197;-23
2023/08/15 01:23:44;;;;;;;9.90;2.95;;;22.50;99.90;;;;;;5024745;28;20200;-23
2023/08/15 01:26:11;;;;;;;9.35;3.13;;;22.50;99.90;;;;;;5024718;28;20686;-23
2023/08/15 01:28:46;;;;;;;8.23;2.95;;;22.50;99.90;;;;;;5026379;28;20207;-23
2023/08/15 01:31:32;;;;;;;7.97;2.80;;;22.40;99.90;;;;;;5007702;28;20204;-31
2023/08/15 01:34:07;;;;;;;10.68;3.22;;;22.40;99.90;;;;;;5024318;28;20204;-31
2023/08/15 01:36:44;;;;;;;7.13;3.05;;;22.40;99.90;;;;;;5026414;28;20208;-31
2023/08/15 01:39:14;;;;;;;7.88;3.03;;;22.40;99.90;;;;;;5035985;28;20236;-31
2023/08/15 01:41:43;;;;;;;10.25;3.15;;;22.40;99.90;;;;;;5045629;28;20227;-31
2023/08/15 01:44:11;;;;;;;6.18;2.60;;;22.30;99.90;;;;;;5046201;28;20274;-31
2023/08/15 01:46:46;;;;;;;7.20;2.42;;;22.30;99.90;;;;;;5045004;28;20381;-30
2023/08/15 01:49:15;;;;;;;8.68;3.00;;;22.30;99.90;;;;;;5046128;28;20192;-31
2023/08/15 01:51:45;;;;;;;8.15;3.08;;;22.30;99.90;;;;;;5044684;28;20238;-31
2023/08/15 01:54:15;;;;;;;7.68;2.97;;;22.30;99.90;;;;;;5044374;28;20274;-31
2023/08/15 01:56:46;;;;;;;9.15;3.53;;;22.30;99.90;;;;;;5045840;28;20564;-31
2023/08/15 01:59:15;;;;;;;9.38;2.85;;;22.20;99.90;;;;;;5045041;28;20196;-31
2023/08/15 02:01:42;;;;;;;5.97;2.67;;;22.20;99.90;;;;;;5044044;28;20324;-31
2023/08/15 02:04:12;;;;;;;7.88;3.10;;;22.20;99.90;;;;;;5044298;28;20330;-31
2023/08/15 02:06:39;;;;;;;7.43;2.85;;;22.20;99.90;;;;;;5027785;28;20254;-31
2023/08/15 02:09:06;;;;;;;9.27;2.95;;;22.20;99.90;;;;;;5045984;28;20591;-31
2023/08/15 02:11:38;;;;;;;7.45;2.88;;;22.20;99.90;;;;;;5045971;28;20220;-31
2023/08/15 02:14:08;;;;;;;11.60;2.92;;;22.10;99.90;;;;;;5045585;28;20200;-31
2023/08/15 02:16:37;;;;;;;7.03;2.97;;;22.10;99.90;;;;;;5027788;28;20283;-31
2023/08/15 02:19:05;;;;;;;7.80;2.78;;;22.10;99.90;;;;;;5044315;28;20289;-31
2023/08/15 02:21:32;;;;;;;6.75;2.85;;;22.00;99.90;;;;;;5044227;28;20196;-31
2023/08/15 02:24:00;;;;;;;8.75;2.80;;;22.00;99.90;;;;;;5046009;28;20203;-31
2023/08/15 02:26:29;;;;;;;6.22;2.70;;;22.00;99.90;;;;;;5027596;28;20545;-31
2023/08/15 02:28:57;;;;;;;7.43;3.15;;;22.00;99.90;;;;;;5044488;28;20760;-31
2023/08/15 02:31:29;;;;;;;7.57;3.20;;;22.00;99.90;;;;;;5045709;28;20216;-31
2023/08/15 02:33:56;;;;;;;9.35;2.90;;;22.00;99.90;;;;;;5045158;28;20449;-31
2023/08/15 02:36:25;;;;;;;9.00;3.13;;;22.00;99.90;;;;;;5043806;28;20235;-31
2023/08/15 02:38:53;;;;;;;6.53;2.97;;;22.00;99.90;;;;;;5043524;28;20240;-31
2023/08/15 02:41:24;;;;;;;6.55;3.08;;;22.00;99.90;;;;;;5045306;28;20690;-31
2023/08/15 02:43:54;;;;;;;6.10;2.83;;;22.00;99.90;;;;;;5027896;28;20670;-31
2023/08/15 02:46:25;;;;;;;8.45;2.53;;;22.00;99.90;;;;;;5044055;28;20216;-31
2023/08/15 02:48:53;;;;;;;7.40;2.60;;;22.00;99.90;;;;;;5027648;28;20196;-31
2023/08/15 02:51:22;;;;;;;8.35;2.90;;;22.00;99.90;;;;;;5043749;28;20235;-31
2023/08/15 02:53:51;;;;;;;8.20;2.72;;;22.00;99.90;;;;;;5043603;28;20671;-31
2023/08/15 02:56:21;;;;;;;7.55;2.90;;;22.00;99.90;;;;;;5043771;28;20200;-31
2023/08/15 02:58:52;;;;;;;10.27;3.05;;;22.00;99.90;;;;;;5045532;28;20261;-31
2023/08/15 03:01:25;;;;;;;10.40;3.17;;;22.00;99.90;;;;;;5044293;28;20211;-31
2023/08/15 03:03:55;;;;;;;8.35;2.88;;;22.00;99.90;;;;;;5045410;28;20220;-31
2023/08/15 03:06:24;;;;;;;7.00;2.58;;;22.00;99.90;;;;;;5045507;28;20627;-31
2023/08/15 03:08:51;;;;;;;6.45;2.60;;;22.00;99.90;;;;;;5044106;28;20204;-31
2023/08/15 03:11:19;;;;;;;8.45;3.05;;;22.00;99.90;;;;;;5047084;28;20211;-31
2023/08/15 03:13:59;;;;;;;9.50;3.42;;;22.00;99.90;;;;;;5047268;28;20223;-31
2023/08/15 03:16:27;;;;;;;10.30;3.17;;;22.00;99.90;;;;;;5047518;28;20450;-31
2023/08/15 03:19:01;;;;;;;7.85;3.30;;;22.00;99.90;;;;;;5046956;28;20203;-31
2023/08/15 03:21:30;;;;;;;5.53;2.72;;;22.00;99.90;;;;;;5046964;28;20216;-31
2023/08/15 03:23:57;;;;;;;7.50;2.75;;;22.00;99.90;;;;;;5048354;28;20302;-31
2023/08/15 03:26:28;;;;;;;6.45;3.05;;;22.00;99.90;;;;;;5046949;28;20208;-31
2023/08/15 03:28:56;;;;;;;6.25;2.70;;;22.00;99.90;;;;;;5047234;28;20564;-31
2023/08/15 03:31:29;;;;;;;11.70;3.72;;;22.00;99.90;;;;;;5047013;28;20204;-31
2023/08/15 03:33:57;;;;;;;9.73;3.42;;;22.00;99.90;;;;;;5046842;28;20282;-31
2023/08/15 03:36:33;;;;;;;5.60;2.67;;;21.90;99.90;;;;;;5048836;28;20191;-31
2023/08/15 03:39:04;;;;;;;9.63;3.50;;;21.90;99.90;;;;;;5047268;28;20323;-31
2023/08/15 03:41:31;;;;;;;5.35;2.95;;;21.90;99.90;;;;;;5048865;28;20578;-31
2023/08/15 03:44:02;;;;;;;7.85;3.30;;;21.90;99.90;;;;;;5046925;28;20287;-31
2023/08/15 03:46:36;;;;;;;8.18;3.20;;;21.90;99.90;;;;;;5046723;28;20222;-31
2023/08/15 03:49:09;;;;;;;8.13;2.92;;;21.90;99.90;;;;;;5048067;28;20200;-31
2023/08/15 03:51:38;;;;;;;6.78;3.10;;;21.90;99.90;;;;;;5046410;28;20227;-31
2023/08/15 03:54:13;;;;;;;7.35;2.90;;;21.90;99.90;;;;;;5046903;28;20285;-31
2023/08/15 03:56:41;;;;;;;8.05;3.05;;;21.90;99.90;;;;;;5048089;28;20626;-31
2023/08/15 03:59:08;;;;;;;8.90;3.75;;;21.90;99.90;;;;;;5046630;28;20283;-31
2023/08/15 04:01:36;;;;;;;8.80;3.30;;;21.80;99.90;;;;;;5046535;28;20210;-31
2023/08/15 04:04:03;;;;;;;6.22;2.80;;;21.80;99.90;;;;;;5046350;28;20219;-31
2023/08/15 04:06:31;;;;;;;9.93;3.20;;;21.80;99.90;;;;;;5047604;28;20210;-31
2023/08/15 04:09:00;;;;;;;10.30;3.10;;;21.80;99.90;;;;;;5046347;28;20207;-31
2023/08/15 04:11:27;;;;;;;11.18;3.67;;;21.70;99.90;;;;;;5048060;28;20200;-31
2023/08/15 04:13:55;;;;;;;8.38;3.45;;;21.70;99.90;;;;;;5047674;28;20650;-31
2023/08/15 04:16:25;;;;;;;9.20;3.45;;;21.70;99.90;;;;;;5046403;28;20504;-31
2023/08/15 04:18:52;;;;;;;8.73;3.03;;;21.70;99.90;;;;;;5047461;28;20291;-31
2023/08/15 04:21:19;;;;;;;11.10;3.67;;;21.60;99.90;;;;;;5046692;28;20286;-31
2023/08/15 04:23:46;;;;;;;11.35;3.60;;;21.60;99.90;;;;;;5047299;28;20204;-31
2023/08/15 04:26:14;;;;;;;9.52;3.45;;;21.60;99.90;;;;;;5047081;28;20208;-31
2023/08/15 04:28:43;;;;;;;7.20;3.30;;;21.60;99.90;;;;;;5047266;28;20211;-23
2023/08/15 04:31:12;;;;;;;9.38;3.50;;;21.50;99.90;;;;;;5045962;28;20658;-23
2023/08/15 04:33:40;;;;;;;8.48;3.05;;;21.50;99.90;;;;;;5047273;28;20222;-23
2023/08/15 04:36:08;;;;;;;8.55;3.10;;;21.50;99.90;;;;;;5046460;28;20547;-24
2023/08/15 04:38:35;;;;;;;8.20;3.30;;;21.50;99.90;;;;;;5045578;28;20748;-23
2023/08/15 04:41:05;;;;;;;9.63;3.33;;;21.50;99.90;;;;;;5045540;28;20216;-23
2023/08/15 04:43:33;;;;;;;8.95;3.45;;;21.40;99.90;;;;;;5045548;28;20261;-23
2023/08/15 04:46:02;;;;;;;7.97;2.97;;;21.40;99.90;;;;;;5045508;28;20212;-23
2023/08/15 04:48:30;;;;;;;5.90;2.90;;;21.40;99.90;;;;;;5046231;28;20204;-23
2023/08/15 04:50:59;;;;;;;9.52;3.33;;;21.40;99.90;;;;;;5029293;28;20216;-23
2023/08/15 04:53:26;;;;;;;11.43;3.97;;;21.40;99.90;;;;;;5046961;28;20223;-23
2023/08/15 04:55:53;;;;;;;6.90;3.58;;;21.40;99.90;;;;;;5045419;28;20205;-23
2023/08/15 04:58:22;;;;;;;9.88;3.30;;;21.30;99.90;;;;;;5046623;28;20729;-24
2023/08/15 05:00:50;;;;;;;7.07;3.00;;;21.30;99.90;;;;;;5046371;28;20239;-23
2023/08/15 05:03:17;;;;;;;10.68;3.40;;;21.30;99.90;;;;;;5045451;28;20207;-23
2023/08/15 05:05:44;;;;;;;7.55;2.85;;;21.30;99.90;;;;;;5046630;28;20220;-24
2023/08/15 05:08:12;;;;;;;8.82;3.33;;;21.30;99.90;;;;;;5046467;28;20573;-23
2023/08/15 05:10:42;;;;;;;7.25;3.47;;;21.30;99.90;;;;;;5045133;28;20687;-24
2023/08/15 05:13:10;;;;;;;7.55;2.80;;;21.30;99.90;;;;;;5045009;28;20231;-24
2023/08/15 05:15:41;;;;;;;8.55;2.83;;;21.30;99.90;;;;;;5045260;28;20204;-23
2023/08/15 05:18:12;;;;;;;10.50;3.90;;;21.30;99.90;;;;;;5045362;28;20200;-23
2023/08/15 05:20:39;;;;;;;7.63;2.70;;;21.30;99.90;;;;;;5044819;28;20280;-23
2023/08/15 05:23:07;;;;;;;9.45;2.97;;;21.30;99.90;;;;;;5046301;28;20220;-23
2023/08/15 05:25:35;;;;;;;7.80;2.88;;;21.30;99.90;;;;;;5045297;28;20225;-24
2023/08/15 05:28:05;;;;;;;7.63;3.05;;;21.30;99.90;;;;;;5046373;28;20200;-24
2023/08/15 05:30:38;;;;;;;7.72;2.90;;;21.30;99.90;;;;;;5045225;28;20240;-23
2023/08/15 05:33:05;;;;;;;6.50;3.20;;;21.40;99.90;;;;;;5046056;28;20212;-24
2023/08/15 05:35:36;;;;;;;7.15;3.35;;;21.40;99.90;;;;;;5044789;28;20209;-23
2023/08/15 05:38:05;;;;;;;6.45;3.05;;;21.40;99.90;;;;;;5045937;28;20239;-24
2023/08/15 05:40:35;;;;;;;7.63;3.22;;;21.40;99.90;;;;;;5044547;28;20229;-23
2023/08/15 05:43:02;;;;;;;6.95;3.30;;;21.40;99.90;;;;;;5045870;28;20200;-24
2023/08/15 05:45:32;;;;;;;6.65;2.92;;;21.40;99.90;;;;;;5028532;28;20258;-23
2023/08/15 05:48:00;;;;;;;11.65;3.72;;;21.50;99.90;;;;;;5045934;28;20686;-23
2023/08/15 05:50:27;;;;;;;8.07;3.25;;;21.50;99.90;;;;;;5028068;28;20214;-23
2023/08/15 05:52:57;;;;;;;6.50;3.22;;;21.50;99.90;;;;;;5044496;28;20603;-24
2023/08/15 05:55:24;;;;;;;7.55;3.08;;;21.50;99.90;;;;;;5044302;28;20219;-23
2023/08/15 05:57:51;;;;;;;7.45;2.95;;;21.50;99.90;;;;;;5045696;28;20739;-23
2023/08/15 06:00:20;;;;;;;8.32;3.05;;;21.60;99.90;;;;;;5045659;28;20196;-23
2023/08/15 06:02:50;;;;;;;8.30;2.65;;;21.60;99.90;;;;;;5045883;28;20285;-23
2023/08/15 06:05:17;;;;;;;6.57;3.15;;;21.60;99.90;;;;;;5028332;28;20339;-23
2023/08/15 06:07:47;;;;;;;8.82;3.17;;;21.60;99.90;;;;;;5045935;28;20266;-31
2023/08/15 06:10:14;;;;;;;5.20;2.35;;;21.60;99.90;;;;;;5045547;28;20216;-31
2023/08/15 06:12:48;;;;;;;8.27;2.95;;;21.70;99.90;;;;;;5045465;28;20853;-31
2023/08/15 06:15:15;;;;;;;6.03;2.45;;;21.70;99.90;;;;;;5045666;28;20647;-31
2023/08/15 06:17:43;;;;;;;8.40;2.65;;;21.70;99.90;;;;;;5043787;28;20196;-31
2023/08/15 06:20:10;;;;;;;6.85;3.17;;;21.70;99.90;;;;;;5043958;28;20232;-31
2023/08/15 06:22:38;;;;;;;5.90;2.30;;;21.80;99.90;;;;;;5045498;28;20231;-31
2023/08/15 06:25:11;;;;;;;8.55;2.60;;;21.80;99.90;;;;;;5045921;28;20238;-31
2023/08/15 06:27:38;;;;;;;9.93;2.80;;;21.80;99.90;;;;;;5044046;28;20581;-31
2023/08/15 06:30:08;;;;;;;7.88;3.15;;;21.80;99.90;;;;;;5045340;28;20216;-31
2023/08/15 06:32:37;;;;;;;5.43;2.50;;;21.80;99.90;;;;;;5043972;28;20204;-31
2023/08/15 06:35:06;;;;;;;6.38;2.50;;;21.90;99.90;;;;;;5044228;28;20283;-31
2023/08/15 06:37:36;;;;;;;5.28;2.17;;;21.90;99.90;;;;;;5027963;28;20756;-32
2023/08/15 06:40:03;;;;;;;6.70;2.65;;;21.90;99.90;;;;;;5045472;28;20232;-31
2023/08/15 06:42:31;;;;;;;9.23;2.45;;;21.90;99.90;;;;;;5044546;28;20246;-31
2023/08/15 06:45:11;;;;;;;6.88;2.92;;;22.00;99.90;;;;;;5046416;28;20439;-31
2023/08/15 06:47:39;;;;;;;7.80;2.80;;;22.00;99.90;;;;;;5049104;28;20549;-31
2023/08/15 06:50:08;;;;;;;8.38;2.60;;;22.10;99.90;;;;;;5047416;28;20211;-31
2023/08/15 06:52:35;;;;;;;6.30;2.53;;;22.10;99.90;;;;;;5047459;28;20254;-31
2023/08/15 06:55:06;;;;;;;8.88;2.40;;;22.20;99.90;;;;;;5047631;28;20192;-31
2023/08/15 06:57:34;;;;;;;7.38;2.70;;;22.20;99.90;;;;;;5047621;28;20773;-31
2023/08/15 07:00:02;;;;;;;4.93;2.20;;;22.30;99.90;;;;;;5047532;28;20208;-30
2023/08/15 07:02:31;;;;;;;5.20;2.20;;;22.30;99.90;;;;;;5030842;28;20227;-31
2023/08/15 07:04:58;;;;;;;6.22;2.10;;;22.40;99.90;;;;;;5031257;28;20660;-31
2023/08/15 07:07:26;;;;;;;5.60;2.20;;;22.40;99.90;;;;;;5048948;28;20530;-31
2023/08/15 07:09:53;;;;;;;4.97;2.22;;;22.50;99.90;;;;;;5031030;28;20626;-31
2023/08/15 07:12:20;;;;;;;5.28;1.98;;;22.60;99.90;;;;;;5047239;28;20207;-31
2023/08/15 07:14:48;;;;;;;4.15;2.17;;;22.60;99.90;;;;;;5047134;28;20234;-31
2023/08/15 07:17:15;;;;;;;6.35;2.20;;;22.70;99.90;;;;;;5047623;28;20196;-31
2023/08/15 07:19:42;;;;;;;7.35;2.42;;;22.80;99.90;;;;;;5049087;28;20223;-31
2023/08/15 07:22:12;;;;;;;7.53;2.13;;;22.80;99.90;;;;;;5047577;28;20265;-31
2023/08/15 07:24:42;;;;;;;6.45;1.88;;;22.90;99.90;;;;;;5048433;28;20274;-31
2023/08/15 07:27:09;;;;;;;5.53;1.88;;;23.00;99.90;;;;;;5047551;28;20604;-31
2023/08/15 07:29:40;;;;;;;3.97;2.20;;;23.00;99.90;;;;;;5046999;28;20200;-31
2023/08/15 07:32:08;;;;;;;5.75;2.35;;;23.10;99.90;;;;;;5047145;28;20651;-31
2023/08/15 07:34:49;;;;;;;5.20;2.10;;;23.10;99.90;;;;;;5048362;28;20230;-31
2023/08/15 07:37:19;;;;;;;4.82;2.10;;;23.20;99.90;;;;;;5046948;28;20638;-31
2023/08/15 07:40:00;;;;;;;3.80;1.70;;;23.20;99.90;;;;;;5030351;28;20286;-31
2023/08/15 07:42:28;;;;;;;7.72;2.10;;;23.30;99.90;;;;;;5046830;28;20215;-31
2023/08/15 07:44:55;;;;;;;4.15;1.70;;;23.30;99.90;;;;;;5046545;28;20348;-31
2023/08/15 07:47:24;;;;;;;7.30;2.17;;;23.40;99.90;;;;;;5048222;28;20208;-31
2023/08/15 07:50:15;;;;;;;7.82;2.20;;;23.50;99.90;;;;;;5046528;28;20212;-31
2023/08/15 07:52:45;;;;;;;4.78;1.80;;;23.50;99.90;;;;;;5047720;28;20208;-31
2023/08/15 07:55:18;;;;;;;4.38;1.65;;;23.60;99.90;;;;;;5047157;28;20227;-31
2023/08/15 07:57:45;;;;;;;6.47;2.53;;;23.70;99.90;;;;;;5048229;28;20188;-31
2023/08/15 08:00:14;;;;;;;4.30;1.60;;;23.70;99.90;;;;;;5048404;28;20229;-31
2023/08/15 08:02:48;;;;;;;5.07;1.88;;;23.70;99.90;;;;;;5046341;28;20201;-31
2023/08/15 08:05:18;;;;;;;4.35;2.10;;;23.80;99.90;;;;;;5047917;28;20184;-23
2023/08/15 08:07:51;;;;;;;3.13;1.60;;;23.80;99.90;;;;;;5047369;28;20589;-23
2023/08/15 08:10:20;;;;;;;4.22;2.00;;;23.90;99.90;;;;;;5047568;28;20200;-23
2023/08/15 08:12:48;;;;;;;4.95;1.73;;;23.90;99.90;;;;;;5047154;28;20204;-23
2023/08/15 08:15:15;;;;;;;3.72;1.60;;;23.90;99.90;;;;;;5046051;28;20203;-23
2023/08/15 08:17:44;;;;;;;4.47;1.80;;;23.90;99.90;;;;;;5047765;28;20218;-31
2023/08/15 08:20:12;;;;;;;3.03;1.60;;;23.90;99.90;;;;;;5047388;28;20196;-31
2023/08/15 08:22:44;;;;;;;2.65;1.30;;;24.00;99.90;;;;;;5046251;28;20204;-31
2023/08/15 08:25:24;;;;;;;3.22;1.63;;;24.00;99.90;;;;;;5046319;28;20827;-23
2023/08/15 08:27:51;;;;;;;4.75;1.67;;;24.00;99.90;;;;;;5045624;28;20649;-23
2023/08/15 08:30:20;;;;;;;3.65;1.60;;;24.00;99.90;;;;;;5045774;28;20200;-23
2023/08/15 08:32:48;;;;;;;2.72;1.35;;;24.00;99.90;;;;;;5047400;28;20200;-23
2023/08/15 08:35:15;;;;;;;4.20;1.70;;;24.00;99.90;;;;;;5047617;28;20657;-23
2023/08/15 08:37:47;;;;;;;3.15;1.35;;;24.10;99.90;;;;;;5047280;28;20437;-23
2023/08/15 08:40:18;;;;;;;3.95;2.00;;;24.10;99.90;;;;;;5045662;28;20648;-23
2023/08/15 08:42:46;;;;;;;2.50;1.13;;;24.10;99.90;;;;;;5046954;28;20193;-23
2023/08/15 08:45:13;;;;;;;3.70;1.42;;;24.20;99.90;;;;;;5045558;28;20228;-23
2023/08/15 08:47:43;;;;;;;4.63;1.73;;;24.20;99.90;;;;;;5045346;28;20372;-23
2023/08/15 08:50:13;;;;;;;3.33;1.20;;;24.30;99.90;;;;;;5029180;28;20516;-24
2023/08/15 08:52:49;;;;;;;3.10;1.38;;;24.30;99.90;;;;;;5046399;28;20208;-24
2023/08/15 08:55:17;;;;;;;2.65;1.10;;;24.40;99.90;;;;;;5045042;28;20334;-24
2023/08/15 08:57:52;;;;;;;3.33;1.10;;;24.40;99.90;;;;;;5045244;28;20742;-24
2023/08/15 09:00:29;;;;;;;2.42;1.27;;;24.40;99.90;;;;;;5047004;28;20570;-24
2023/08/15 09:02:57;;;;;;;2.60;1.40;;;24.50;99.90;;;;;;5045110;28;20212;-24
2023/08/15 09:05:26;;;;;;;4.03;1.30;;;24.50;99.90;;;;;;5044819;28;20204;-24
2023/08/15 09:07:54;;;;;;;2.33;1.20;;;24.50;99.90;;;;;;5046176;28;20645;-24
2023/08/15 09:10:23;;;;;;;2.22;1.35;;;24.60;99.90;;;;;;5046680;28;20220;-24
2023/08/15 09:12:56;;;;;;;2.58;1.20;;;24.60;99.90;;;;;;5045754;28;20742;-24
2023/08/15 09:15:23;;;;;;;2.65;1.38;;;24.70;99.90;;;;;;5046636;28;20262;-24
2023/08/15 09:18:04;;;;;;;7.82;1.35;;;24.70;99.90;;;;;;5044960;28;20203;-23
2023/08/15 09:20:33;;;;;;;1.40;0.95;;;24.70;99.90;;;;;;5046750;28;20216;-23
2023/08/15 09:23:02;;;;;;;3.30;1.40;;;24.70;99.90;;;;;;5046121;28;20696;-23
2023/08/15 09:25:36;;;;;;;2.45;1.20;;;24.80;99.90;;;;;;5044611;28;20215;-23
2023/08/15 09:28:10;;;;;;;2.47;1.25;;;24.80;99.90;;;;;;5045945;28;20196;-23
2023/08/15 09:30:37;;;;;;;2.60;1.30;;;24.90;99.90;;;;;;5046168;28;20229;-23
2023/08/15 09:33:05;;;;;;;3.30;1.30;;;25.00;99.90;;;;;;5046286;28;20654;-23
2023/08/15 09:35:32;;;;;;;2.20;1.38;;;25.00;99.90;;;;;;5045772;28;20256;-23
2023/08/15 09:38:06;;;;;;;4.68;1.25;;;25.00;99.90;;;;;;5044106;28;20283;-24
2023/08/15 09:40:34;;;;;;;1.63;1.20;;;25.00;99.90;;;;;;5044351;28;20208;-23
2023/08/15 09:43:04;;;;;;;3.72;1.65;;;25.10;99.90;;;;;;5044256;28;20203;-23
2023/08/15 09:45:31;;;;;;;3.53;1.55;;;25.10;99.90;;;;;;5044307;28;20225;-23
2023/08/15 09:48:00;;;;;;;3.03;1.55;;;25.10;99.90;;;;;;5046119;28;20368;-23
2023/08/15 09:50:31;;;;;;;4.95;1.52;;;25.10;99.90;;;;;;5044703;28;20311;-23
2023/08/15 09:53:00;;;;;;;2.88;1.30;;;25.20;99.90;;;;;;5026556;28;20212;-23
2023/08/15 09:55:30;;;;;;;2.70;1.50;;;25.20;99.90;;;;;;5044954;28;20257;-23
2023/08/15 09:57:57;;;;;;;5.35;1.60;;;25.20;99.90;;;;;;5045487;28;20679;-23
2023/08/15 10:00:26;;;;;;;3.83;1.67;;;25.30;99.90;;;;;;5045749;28;20645;-23
2023/08/15 10:03:19;;;;;;;3.67;1.70;;;25.30;99.90;;;;;;5043397;28;20201;-23
2023/08/15 10:06:00;;;;;;;4.55;1.90;;;25.40;99.90;;;;;;5043898;28;20306;-23
2023/08/15 10:08:30;;;;;;;4.45;2.25;;;25.40;99.90;;;;;;5044354;28;20192;-23
2023/08/15 10:10:58;;;;;;;4.38;2.10;;;25.40;99.90;;;;;;5045639;28;20200;-23
2023/08/15 10:13:30;;;;;;;5.88;2.20;;;25.40;99.90;;;;;;5043873;28;20780;-23
2023/08/15 10:15:59;;;;;;;2.72;2.00;;;25.50;99.90;;;;;;5044022;28;20201;-23
2023/08/15 10:18:32;;;;;;;6.38;1.85;;;25.60;99.90;;;;;;5044391;28;20196;-23
2023/08/15 10:21:01;;;;;;;3.55;1.60;;;25.60;99.90;;;;;;5043839;28;20196;-23
2023/08/15 10:23:33;;;;;;;4.15;1.60;;;25.70;99.90;;;;;;5045709;28;20578;-23
2023/08/15 10:26:02;;;;;;;5.95;1.75;;;25.80;99.90;;;;;;5044625;28;20204;-23
2023/08/15 10:28:32;;;;;;;5.25;2.00;;;25.80;99.90;;;;;;5043853;28;20629;-23
2023/08/15 10:31:00;;;;;;;4.70;1.73;;;25.90;99.90;;;;;;5045098;28;20204;-23
2023/08/15 10:33:33;;;;;;;5.35;1.88;;;25.90;99.90;;;;;;5043680;28;20670;-24
2023/08/15 10:36:03;;;;;;;6.72;2.10;;;25.90;99.90;;;;;;5045532;28;20219;-23
2023/08/15 10:38:32;;;;;;;2.70;1.63;;;26.00;99.90;;;;;;5045036;28;20657;-23
2023/08/15 10:41:13;;;;;;;4.68;2.00;;;26.00;99.90;;;;;;5043688;28;20207;-23
2023/08/15 10:43:47;;;;;;;5.00;1.55;;;26.10;99.90;;;;;;5043829;28;20951;-23
2023/08/15 10:46:28;;;;;;;4.78;2.10;;;26.20;99.90;;;;;;5044360;28;20586;-23
2023/08/15 10:49:01;;;;;;;4.40;1.98;;;26.20;99.90;;;;;;5045054;28;20230;-23
2023/08/15 10:51:36;;;;;;;8.48;1.73;;;26.20;99.90;;;;;;5044915;28;20196;-23
2023/08/15 10:54:06;;;;;;;3.33;1.77;;;26.20;99.90;;;;;;5045108;28;20239;-23
2023/08/15 10:56:39;;;;;;;4.38;1.85;;;26.30;99.90;;;;;;5045165;28;20286;-23
2023/08/15 10:59:11;;;;;;;3.67;1.70;;;26.30;99.90;;;;;;5043672;28;20203;-24
2023/08/15 11:01:44;;;;;;;3.60;1.98;;;26.30;99.90;;;;;;5027930;28;20197;-23
2023/08/15 11:04:22;;;;;;;4.30;1.98;;;26.40;99.90;;;;;;5045050;28;20226;-23
2023/08/15 11:06:54;;;;;;;6.68;2.05;;;26.50;99.90;;;;;;5045102;28;20216;-23
2023/08/15 11:09:31;;;;;;;5.60;1.98;;;26.50;99.90;;;;;;5043679;28;20196;-23
2023/08/15 11:12:09;;;;;;;4.85;1.58;;;26.50;99.90;;;;;;5045055;28;20204;-23
2023/08/15 11:14:36;;;;;;;4.80;2.10;;;26.60;99.90;;;;;;5043498;28;20228;-24
2023/08/15 11:17:04;;;;;;;5.38;2.03;;;26.60;99.90;;;;;;5027095;28;20686;-23
2023/08/15 11:19:33;;;;;;;5.00;1.85;;;26.70;99.90;;;;;;5041975;28;20230;-23
2023/08/15 11:22:01;;;;;;;5.80;1.88;;;26.70;99.90;;;;;;5044672;28;20200;-23
2023/08/15 11:24:36;;;;;;;6.57;2.47;;;26.70;99.90;;;;;;5042909;28;20212;-23
2023/08/15 11:27:04;;;;;;;4.35;1.75;;;26.80;99.90;;;;;;5026863;28;20309;-23
2023/08/15 11:29:38;;;;;;;4.18;1.70;;;26.90;99.90;;;;;;5043152;28;20227;-24
2023/08/15 11:32:06;;;;;;;5.40;1.90;;;26.90;99.90;;;;;;5048895;28;20200;-23
2023/08/15 11:34:38;;;;;;;5.78;2.40;;;27.00;99.90;;;;;;5048058;28;20650;-23
2023/08/15 11:37:09;;;;;;;4.20;1.85;;;27.00;99.90;;;;;;5031133;28;20184;-24
2023/08/15 11:39:36;;;;;;;3.15;1.80;;;27.10;99.90;;;;;;5047720;28;20243;-24
2023/08/15 11:42:06;;;;;;;4.75;1.83;;;27.10;99.90;;;;;;5047856;28;20201;-23
2023/08/15 11:44:33;;;;;;;3.53;1.92;;;27.20;99.90;;;;;;5047698;28;20295;-23
2023/08/15 11:47:00;;;;;;;5.85;2.22;;;27.30;99.90;;;;;;5046590;28;20740;-23
2023/08/15 11:49:33;;;;;;;3.85;2.00;;;27.30;99.90;;;;;;5047739;28;20266;-23
2023/08/15 11:52:12;;;;;;;3.75;1.83;;;27.40;99.90;;;;;;5048220;28;20196;-23
2023/08/15 11:54:46;;;;;;;3.03;1.80;;;27.50;99.90;;;;;;5046604;28;20285;-23
2023/08/15 11:57:35;;;;;;;5.00;2.08;;;27.50;99.90;;;;;;5048242;28;20235;-23
2023/08/15 12:00:03;;;;;;;8.23;2.15;;;27.60;99.90;;;;;;5047961;28;20736;-23
2023/08/15 12:02:34;;;;;;;3.38;1.92;;;27.60;99.90;;;;;;5046168;28;20204;-24
2023/08/15 12:05:18;;;;;;;5.25;2.20;;;27.60;99.90;;;;;;5047880;28;20310;-23
2023/08/15 12:07:51;;;;;;;4.22;1.80;;;27.60;99.90;;;;;;5046593;28;20234;-23
2023/08/15 12:10:19;;;;;;;7.70;2.55;;;27.60;99.90;;;;;;5046549;28;20278;-23
2023/08/15 12:12:49;;;;;;;4.30;2.42;;;27.60;99.90;;;;;;5048324;28;20208;-23
2023/08/15 12:15:16;;;;;;;5.82;2.20;;;27.60;99.90;;;;;;5046149;28;20228;-23
2023/08/15 12:17:43;;;;;;;4.60;2.50;;;27.70;99.90;;;;;;5029806;28;20500;-23
2023/08/15 12:20:14;;;;;;;7.28;2.20;;;27.70;99.90;;;;;;5030318;28;20228;-23
2023/08/15 12:22:42;;;;;;;4.43;1.92;;;27.70;99.90;;;;;;5047662;28;20586;-23
2023/08/15 12:25:13;;;;;;;3.10;1.80;;;27.70;99.90;;;;;;5047290;28;20311;-23
2023/08/15 12:27:42;;;;;;;7.07;1.95;;;27.70;99.90;;;;;;5045965;28;20216;-23
2023/08/15 12:30:13;;;;;;;5.93;2.35;;;27.70;99.90;;;;;;5047401;28;20291;-23
2023/08/15 12:32:47;;;;;;;5.20;2.00;;;27.70;99.90;;;;;;5045725;28;20209;-23
2023/08/15 12:35:17;;;;;;;4.82;2.20;;;27.70;99.90;;;;;;5045415;28;20606;-24
2023/08/15 12:37:47;;;;;;;2.47;2.00;;;27.70;99.90;;;;;;5045592;28;20670;-23
2023/08/15 12:40:16;;;;;;;6.75;2.17;;;27.80;99.90;;;;;;5047203;28;20841;-23
2023/08/15 12:43:01;;;;;;;4.07;2.03;;;27.80;99.90;;;;;;5045159;28;20200;-23
2023/08/15 12:45:35;;;;;;;4.55;2.30;;;27.80;99.90;;;;;;5045500;28;20298;-23
2023/08/15 12:48:08;;;;;;;5.15;2.00;;;27.80;99.90;;;;;;5047326;28;20285;-23
2023/08/15 12:50:35;;;;;;;4.20;1.95;;;27.80;99.90;;;;;;5047531;28;20588;-23
2023/08/15 12:53:02;;;;;;;5.00;1.85;;;27.80;99.90;;;;;;5045748;28;20724;-23
2023/08/15 12:55:29;;;;;;;4.43;2.00;;;27.80;99.90;;;;;;5046900;28;20278;-23
2023/08/15 12:57:57;;;;;;;6.57;2.13;;;27.80;99.90;;;;;;5046629;28;20735;-23
2023/08/15 13:00:26;;;;;;;3.30;1.70;;;27.90;99.90;;;;;;5028876;28;20689;-23